Shimojishima Airport
RORS : now visible

Airfield :











YOU CAN JOIN US ON...

 
LOGIN :

Register | Disclaimer

   EN    FR    IT 

 









Legend :    VFR   Marginal VFR   IFR   Intensive IFR   Very Intensive IFR
Visi :
Ceiling :
>= 8 km
>= 3000ft
5 to 8 km
1000 to 3000 ft
1500m to 5 km
500 to 1000 ft
800 to 1500m
200 to 500 ft
< 800m
< 200 ft
Symbols :   Thunderstorms  Fog  Heavy snow  Heavy precipitations  Wind > 20 kt







- Airport Elevation : 54 ft
- IATA code : SHI


RORS - Shimojishima

CURRENT METAR :
  • 210300Z 26022G34KT 5000 R35/1500VP2000U -SHRA BR FEW008 BKN011 BKN029 27/26 Q0992

EXPIRED METARs :
  • 210238Z 26021G35KT 4000 R35/P2000N -SHRA BR BKN011 27/26 Q0991 RMK 6CU011 A2928
  • 210200Z 27024G37KT 5000 -SHRA BR SCT011 BKN016 27/26 Q0991
  • 210121Z 26020G34KT 3000 R35/P2000N -SHRA BR SCT011 SCT015 BKN020 27/26 Q0990 RMK 3CU011 4CU015 6CU020 A2924
  • 210100Z 27022G38KT 6000 -SHRA FEW008 SCT015 FEW020TCU BKN040 27/26 Q0989
  • 210032Z 27022G34KT 5000 -SHRA BR FEW008 SCT013 BKN016 27/26 Q0989 RMK 1ST008 4CU013 6CU016 A2922
  • 210000Z 29026G37KT 2000 R35/0700VP2000D +SHRA BR SCT008 SCT011 BKN016 26/25 Q0988

TAF N/A
No reported NOTAMs for that airfield.



MET'MAP, your aeronautical weather chart ! - Copyright ORBIFLY December 2007 - Disclaimer

ORBIFLY MET'MAP TEAM :

Programming & Development : Alexandra Zaïnal
Concept & Development : Baudouin d'Aumeries
Co-Development & Prog : Marc-Olivier Méhu
Technical & hardware support : Manuel Goepfert

Contact : metmap@orbifly.com




SOURCES & CREDITS :

   NOAA       Earth
Advisory